Time;durP1;ratioP1;P1;durP2;ratioP2;P2;SDS_P1;SDS_P2;PMS_P1;PMS_P2;Temp;Humidity;BMP_temperature;BMP_pressure;BME280_temperature;BME280_humidity;BME280_pressure;Samples;Min_cycle;Max_cycle;Signal;HPM_P1;HPM_P2
2023/04/12 00:00:18;;;;;;;11.80;9.40;;;;;;;7.07;81.33;99243.26;219585;1256;140245;-66
2023/04/12 00:05:45;;;;;;;13.20;10.80;;;;;;;7.06;81.36;99230.92;218880;1256;139672;-66
2023/04/12 00:10:51;;;;;;;11.70;9.00;;;;;;;7.07;81.54;99229.04;218920;1256;139558;-66
2023/04/12 00:15:54;;;;;;;11.20;8.50;;;;;;;7.04;81.19;99235.95;218343;1256;139790;-67
2023/04/12 00:20:58;;;;;;;10.70;7.90;;;;;;;6.99;81.37;99230.54;218677;1255;139342;-67
2023/04/12 00:26:00;;;;;;;17.00;9.90;;;;;;;6.96;81.80;99223.09;218007;1255;139674;-66
2023/04/12 00:31:04;;;;;;;11.20;6.90;;;;;;;6.90;81.49;99220.42;218125;1256;139748;-69
2023/04/12 00:36:07;;;;;;;10.60;8.20;;;;;;;6.81;81.68;99223.98;217824;1258;139477;-72
2023/04/12 00:41:13;;;;;;;11.20;8.10;;;;;;;6.79;81.61;99229.11;218154;1256;141209;-68
2023/04/12 00:46:18;;;;;;;16.40;9.70;;;;;;;6.74;81.60;99233.36;217907;1256;139947;-66
2023/04/12 00:51:24;;;;;;;12.40;8.40;;;;;;;6.73;81.68;99232.13;217986;1256;139773;-68
2023/04/12 00:56:29;;;;;;;12.30;8.40;;;;;;;6.70;82.07;99230.10;217864;1256;139648;-68
2023/04/12 01:01:32;;;;;;;12.40;10.60;;;;;;;6.71;82.09;99231.92;218219;1256;138843;-69
2023/04/12 01:07:02;;;;;;;11.60;9.60;;;;;;;6.73;82.36;99231.97;218383;1257;139567;-67
2023/04/12 01:12:28;;;;;;;9.70;8.30;;;;;;;6.75;82.69;99229.73;217861;1256;139615;-67
2023/04/12 01:17:42;;;;;;;13.40;11.50;;;;;;;6.72;82.28;99237.52;218911;1256;139728;-68
2023/04/12 01:23:01;;;;;;;12.40;10.10;;;;;;;6.72;82.32;99237.57;218624;1256;139846;-67
2023/04/12 01:28:08;;;;;;;13.30;10.00;;;;;;;6.71;82.22;99231.13;218317;1258;139290;-67
2023/04/12 01:33:13;;;;;;;15.90;11.00;;;;;;;6.71;82.07;99233.95;218342;1255;139488;-68
2023/04/12 01:38:16;;;;;;;12.70;9.80;;;;;;;6.72;82.31;99233.16;220490;1255;139151;-69
2023/04/12 01:43:19;;;;;;;12.10;10.30;;;;;;;6.74;82.58;99230.89;218496;1255;140020;-68
2023/04/12 01:48:22;;;;;;;12.50;10.10;;;;;;;6.76;82.70;99223.08;220070;1256;140398;-68
2023/04/12 01:53:52;;;;;;;12.30;10.30;;;;;;;6.75;82.51;99222.70;218308;1257;139308;-67
2023/04/12 01:59:00;;;;;;;11.20;9.00;;;;;;;6.76;82.43;99216.06;218075;1256;140733;-67
2023/04/12 02:04:07;;;;;;;12.20;10.80;;;;;;;6.74;82.68;99218.20;218457;1256;139614;-65
2023/04/12 02:09:11;;;;;;;12.80;10.20;;;;;;;6.74;82.98;99214.24;218442;1258;139762;-67
2023/04/12 02:14:15;;;;;;;14.20;10.50;;;;;;;6.72;82.85;99205.77;218811;1256;139863;-67
2023/04/12 02:19:19;;;;;;;20.20;12.70;;;;;;;6.74;83.22;99205.48;217645;1256;140653;-67
2023/04/12 02:24:22;;;;;;;14.00;11.70;;;;;;;6.72;82.31;99202.39;218148;1256;140600;-66
2023/04/12 02:29:26;;;;;;;13.80;9.30;;;;;;;6.70;82.88;99204.34;218016;1255;142097;-65
2023/04/12 02:34:33;;;;;;;13.70;10.90;;;;;;;6.66;82.91;99197.50;217903;1257;139213;-64
2023/04/12 02:39:36;;;;;;;13.20;10.40;;;;;;;6.65;83.04;99201.66;218328;1256;141140;-65
2023/04/12 02:44:40;;;;;;;11.40;10.00;;;;;;;6.62;83.27;99204.31;217993;1256;139730;-66
2023/04/12 02:49:45;;;;;;;12.90;10.10;;;;;;;6.59;83.56;99207.36;218400;1255;140230;-66
2023/04/12 02:54:51;;;;;;;15.90;11.30;;;;;;;6.60;83.45;99206.61;218264;1256;139405;-67
2023/04/12 02:59:55;;;;;;;14.20;11.30;;;;;;;6.62;83.49;99203.38;217969;1256;140904;-66
2023/04/12 03:04:59;;;;;;;13.60;11.20;;;;;;;6.61;83.30;99204.36;218717;1256;139737;-66
2023/04/12 03:10:06;;;;;;;12.80;9.80;;;;;;;6.61;83.36;99201.59;218272;1254;139627;-66
2023/04/12 03:15:13;;;;;;;15.80;11.00;;;;;;;6.58;83.72;99195.95;219505;1258;139644;-66
2023/04/12 03:20:18;;;;;;;13.70;11.00;;;;;;;6.54;83.80;99197.27;218651;1256;140684;-66
2023/04/12 03:25:22;;;;;;;14.30;10.90;;;;;;;6.55;83.81;99193.10;218849;1256;139506;-67
2023/04/12 03:30:25;;;;;;;15.50;11.80;;;;;;;6.56;83.79;99200.50;218649;1256;139406;-66
2023/04/12 03:35:30;;;;;;;13.10;10.10;;;;;;;6.58;83.97;99200.81;220691;1254;139894;-66
2023/04/12 03:40:33;;;;;;;13.80;10.70;;;;;;;6.60;83.65;99195.73;220547;1258;140123;-69
2023/04/12 03:45:36;;;;;;;13.20;11.40;;;;;;;6.61;84.12;99199.43;220584;1256;141404;-69
2023/04/12 03:50:43;;;;;;;21.10;13.20;;;;;;;6.65;83.95;99197.23;219386;1256;139851;-68
2023/04/12 03:55:48;;;;;;;13.90;11.40;;;;;;;6.70;83.91;99202.02;218240;1256;139279;-67
2023/04/12 04:00:51;;;;;;;17.00;11.00;;;;;;;6.69;83.54;99204.23;218396;1256;140051;-68
2023/04/12 04:05:54;;;;;;;20.10;11.80;;;;;;;6.68;83.87;99204.41;218838;1256;139429;-68
2023/04/12 04:10:58;;;;;;;14.20;10.50;;;;;;;6.68;83.81;99207.74;218788;1255;139235;-68
2023/04/12 04:16:05;;;;;;;10.80;8.70;;;;;;;6.69;84.18;99207.45;218054;1255;140556;-68
2023/04/12 04:21:08;;;;;;;16.80;11.40;;;;;;;6.65;84.00;99205.48;218118;1258;139944;-69
2023/04/12 04:26:12;;;;;;;20.50;12.90;;;;;;;6.61;84.39;99207.58;218109;1255;139183;-67
2023/04/12 04:31:16;;;;;;;14.60;10.80;;;;;;;6.62;84.30;99205.66;218877;1257;140538;-67
2023/04/12 04:36:20;;;;;;;15.30;10.90;;;;;;;6.61;84.23;99206.27;217770;1256;139570;-67
2023/04/12 04:41:23;;;;;;;17.90;12.10;;;;;;;6.61;84.53;99206.80;217946;1256;139676;-67
2023/04/12 04:46:29;;;;;;;20.00;12.50;;;;;;;6.63;84.53;99209.47;219029;1258;151905;-67
2023/04/12 04:51:33;;;;;;;13.80;10.50;;;;;;;6.66;84.37;99215.05;218119;1257;139662;-69
2023/04/12 04:56:37;;;;;;;21.50;11.90;;;;;;;6.67;84.85;99215.74;219347;1256;140728;-70
2023/04/12 05:01:40;;;;;;;16.80;11.50;;;;;;;6.65;84.41;99214.70;218609;1258;140824;-68
2023/04/12 05:06:44;;;;;;;17.80;11.60;;;;;;;6.63;84.21;99220.77;219304;1256;162142;-66
2023/04/12 05:11:48;;;;;;;21.00;13.70;;;;;;;6.66;84.72;99224.10;218124;1257;140656;-65
2023/04/12 05:16:50;;;;;;;12.90;9.80;;;;;;;6.71;84.77;99221.08;219626;1254;139256;-66
2023/04/12 05:21:53;;;;;;;16.70;12.50;;;;;;;6.71;84.43;99226.38;219169;1257;139715;-65
2023/04/12 05:26:56;;;;;;;22.60;13.50;;;;;;;6.73;84.51;99232.70;218800;1258;139377;-66
2023/04/12 05:31:59;;;;;;;15.30;10.80;;;;;;;6.76;84.70;99229.55;220490;1255;139955;-67
2023/04/12 05:37:03;;;;;;;19.50;13.10;;;;;;;6.81;84.58;99234.79;220760;1257;140305;-68
2023/04/12 05:42:05;;;;;;;15.20;11.10;;;;;;;6.87;84.57;99236.55;220732;1258;139698;-67
2023/04/12 05:47:08;;;;;;;20.50;13.10;;;;;;;6.93;84.48;99240.90;220631;1256;139456;-68
2023/04/12 05:52:11;;;;;;;17.10;10.50;;;;;;;6.97;84.36;99237.95;218654;1258;139426;-66
2023/04/12 05:57:16;;;;;;;18.90;12.50;;;;;;;6.98;84.24;99231.77;218281;1258;139438;-66
2023/04/12 06:02:19;;;;;;;16.50;12.20;;;;;;;6.99;84.43;99233.48;218912;1257;140604;-68
2023/04/12 06:07:24;;;;;;;22.60;14.30;;;;;;;6.97;84.23;99235.63;218278;1254;140631;-68
2023/04/12 06:12:27;;;;;;;18.10;13.50;;;;;;;7.01;84.34;99234.77;218830;1259;139669;-68
2023/04/12 06:17:30;;;;;;;20.50;15.20;;;;;;;7.04;84.51;99233.08;218451;1258;139504;-68
2023/04/12 06:22:33;;;;;;;22.50;13.00;;;;;;;7.07;84.26;99231.52;217949;1260;139363;-67
2023/04/12 06:27:37;;;;;;;21.50;15.10;;;;;;;7.08;84.01;99234.57;219064;1257;140210;-68
2023/04/12 06:32:42;;;;;;;22.00;14.70;;;;;;;7.13;84.15;99229.98;218012;1255;140092;-68
2023/04/12 06:37:45;;;;;;;17.00;12.80;;;;;;;7.19;84.59;99228.89;218043;1257;139552;-69
2023/04/12 06:42:49;;;;;;;21.20;13.70;;;;;;;7.22;84.55;99234.31;218137;1258;141437;-69
2023/04/12 06:47:54;;;;;;;24.20;13.90;;;;;;;7.25;84.29;99231.75;217641;1257;141677;-69
2023/04/12 06:52:59;;;;;;;16.50;12.50;;;;;;;7.30;84.29;99230.41;219024;1254;139949;-68
2023/04/12 06:58:03;;;;;;;20.20;12.70;;;;;;;7.34;84.11;99229.90;217964;1255;139339;-69
2023/04/12 07:03:08;;;;;;;18.90;12.20;;;;;;;7.41;84.16;99234.81;218859;1258;140173;-69
2023/04/12 07:08:15;;;;;;;24.60;12.80;;;;;;;7.52;84.20;99234.98;218127;1254;139675;-68
2023/04/12 07:13:19;;;;;;;21.00;13.50;;;;;;;7.63;84.04;99234.58;218368;1254;140322;-68
2023/04/12 07:18:23;;;;;;;10.60;7.90;;;;;;;7.77;84.28;99229.77;219239;1254;140996;-69
2023/04/12 07:23:27;;;;;;;18.40;11.00;;;;;;;7.95;84.03;99224.77;218495;1257;139656;-69
2023/04/12 07:28:30;;;;;;;14.30;9.80;;;;;;;8.10;83.92;99223.59;220958;1253;140237;-69
2023/04/12 07:33:35;;;;;;;12.10;10.10;;;;;;;8.32;83.87;99215.28;219103;1255;139754;-67
2023/04/12 07:38:38;;;;;;;10.60;8.70;;;;;;;8.54;83.54;99216.65;219823;1253;140909;-66
2023/04/12 07:43:42;;;;;;;19.50;11.20;;;;;;;8.63;83.28;99215.19;220145;1254;140064;-66
2023/04/12 07:48:46;;;;;;;16.10;10.40;;;;;;;8.74;83.14;99223.56;218264;1257;139789;-67
2023/04/12 07:53:52;;;;;;;14.30;10.80;;;;;;;8.76;82.95;99221.97;219235;1254;139533;-68
2023/04/12 07:58:55;;;;;;;15.80;9.60;;;;;;;8.92;82.85;99217.64;218777;1254;140505;-66
2023/04/12 08:03:58;;;;;;;13.70;9.70;;;;;;;9.14;82.52;99223.11;218879;1254;141837;-68
2023/04/12 08:09:01;;;;;;;11.10;8.50;;;;;;;9.21;82.13;99222.17;219277;1254;140447;-68
2023/04/12 08:14:06;;;;;;;12.10;9.80;;;;;;;9.18;81.80;99221.83;218173;1254;139361;-67
2023/04/12 08:19:10;;;;;;;12.80;9.40;;;;;;;9.11;81.57;99222.92;218244;1254;139264;-68
2023/04/12 08:24:14;;;;;;;12.20;10.20;;;;;;;9.00;81.22;99223.39;218471;1254;139622;-68
2023/04/12 08:29:18;;;;;;;10.60;9.40;;;;;;;8.95;80.86;99220.25;218581;1257;139851;-68
2023/04/12 08:34:23;;;;;;;14.40;10.80;;;;;;;8.91;81.12;99217.73;218334;1254;139496;-68
2023/04/12 08:39:26;;;;;;;12.50;7.90;;;;;;;8.91;81.06;99219.81;219651;1253;139894;-68
2023/04/12 08:44:35;;;;;;;14.50;8.70;;;;;;;8.94;81.04;99221.30;218974;1253;139722;-69
2023/04/12 08:49:39;;;;;;;11.40;8.40;;;;;;;9.01;81.02;99223.08;218262;1257;140022;-68
2023/04/12 08:54:43;;;;;;;12.30;8.80;;;;;;;9.08;80.99;99219.45;218589;1253;139134;-68
2023/04/12 08:59:49;;;;;;;13.50;8.70;;;;;;;9.21;80.78;99220.41;219261;1254;140951;-70
2023/04/12 09:04:54;;;;;;;14.40;8.40;;;;;;;9.40;80.36;99214.70;219571;1254;140768;-70
2023/04/12 09:09:58;;;;;;;13.50;8.10;;;;;;;9.62;80.06;99209.06;218222;1254;139756;-68
2023/04/12 09:15:12;;;;;;;10.20;7.40;;;;;;;9.79;78.94;99209.27;221293;1253;139237;-69
2023/04/12 09:20:24;;;;;;;8.80;6.00;;;;;;;9.95;78.81;99208.83;219450;1254;142152;-69
2023/04/12 09:25:44;;;;;;;11.40;6.40;;;;;;;10.32;78.34;99206.27;219739;1253;140727;-72
2023/04/12 09:30:53;;;;;;;8.00;6.20;;;;;;;10.67;77.65;99198.40;220001;1253;139633;-71
2023/04/12 09:36:01;;;;;;;6.50;5.30;;;;;;;10.85;76.77;99196.10;219191;1254;221011;-71
2023/04/12 09:41:29;;;;;;;6.80;5.30;;;;;;;10.94;76.53;99199.14;218727;1254;140030;-67
2023/04/12 09:46:32;;;;;;;6.20;4.70;;;;;;;11.00;76.46;99200.33;218820;1254;140790;-68
2023/04/12 09:51:37;;;;;;;13.40;6.20;;;;;;;11.07;75.96;99197.02;218358;1254;141954;-68
2023/04/12 09:56:47;;;;;;;6.60;5.30;;;;;;;11.18;75.85;99196.67;219017;1254;139513;-68
2023/04/12 10:01:51;;;;;;;8.10;6.70;;;;;;;11.24;75.80;99192.89;218931;1254;140807;-69
2023/04/12 10:06:54;;;;;;;8.80;5.50;;;;;;;11.28;75.24;99192.60;218028;1256;139506;-67
2023/04/12 10:12:00;;;;;;;6.70;6.00;;;;;;;11.20;74.97;99190.60;217839;1257;139303;-69
2023/04/12 10:17:04;;;;;;;10.00;6.40;;;;;;;11.15;74.59;99185.54;218500;1257;140316;-70
2023/04/12 10:22:07;;;;;;;8.80;6.30;;;;;;;11.09;74.61;99178.50;219248;1254;140273;-68
2023/04/12 10:27:12;;;;;;;7.00;5.00;;;;;;;11.24;74.25;99176.98;217954;1254;140168;-68
2023/04/12 10:32:23;;;;;;;9.20;4.40;;;;;;;11.45;73.99;99170.34;218068;1254;139951;-69
2023/04/12 10:38:01;;;;;;;7.10;5.90;;;;;;;11.62;73.66;99167.81;217948;1254;139599;-69
2023/04/12 10:43:23;;;;;;;9.00;5.30;;;;;;;12.00;73.60;99164.73;218014;1257;140169;-70
2023/04/12 10:48:36;;;;;;;7.20;6.50;;;;;;;12.65;74.01;99162.14;218159;1254;139691;-70
2023/04/12 10:53:39;;;;;;;10.40;7.50;;;;;;;12.68;72.32;99165.30;218943;1254;139699;-71
2023/04/12 10:58:48;;;;;;;7.90;6.40;;;;;;;12.42;71.45;99157.55;219504;1253;139857;-71
2023/04/12 11:04:18;;;;;;;9.20;6.40;;;;;;;12.24;71.57;99153.61;218086;1254;140894;-68
2023/04/12 11:09:37;;;;;;;10.70;8.60;;;;;;;12.22;71.42;99148.67;220960;1253;139657;-74
2023/04/12 11:14:49;;;;;;;7.30;6.40;;;;;;;12.11;70.70;99152.52;220857;1254;140218;-70
2023/04/12 11:19:54;;;;;;;11.40;7.80;;;;;;;11.95;70.08;99149.88;218435;1254;139481;-69
2023/04/12 11:36:13;;;;;;;6.20;5.30;;;;;;;12.79;69.21;99127.05;214381;1295;685551;-70
2023/04/12 11:41:17;;;;;;;6.70;5.50;;;;;;;12.85;68.60;99121.11;217252;1274;138985;-69
2023/04/12 11:46:20;;;;;;;5.50;5.00;;;;;;;13.13;67.84;99122.40;216304;1268;401625;-68
2023/04/12 11:51:26;;;;;;;4.80;4.40;;;;;;;13.47;67.73;99119.22;216414;1269;138747;-66
2023/04/12 11:56:36;;;;;;;6.30;4.60;;;;;;;13.74;67.22;99114.80;217804;1260;138104;-71
2023/04/12 12:01:50;;;;;;;5.30;4.00;;;;;;;14.16;66.22;99096.20;217053;1263;138341;-68
2023/04/12 12:06:56;;;;;;;6.00;4.10;;;;;;;14.28;64.67;99094.61;217836;1264;138525;-68
2023/04/12 12:12:00;;;;;;;8.50;6.10;;;;;;;14.16;64.22;99088.98;217223;1265;139237;-68
2023/04/12 12:17:10;;;;;;;6.70;5.80;;;;;;;13.88;64.38;99088.64;217317;1263;139600;-68
2023/04/12 12:22:16;;;;;;;8.00;6.20;;;;;;;13.49;64.03;99082.27;217043;1260;138401;-68
2023/04/12 12:27:23;;;;;;;10.90;7.80;;;;;;;13.30;63.94;99077.25;216966;1264;138685;-68
2023/04/12 12:32:32;;;;;;;8.60;6.40;;;;;;;13.19;64.49;99069.91;216846;1260;138458;-69
2023/04/12 12:37:35;;;;;;;8.30;6.20;;;;;;;13.09;64.80;99067.76;217361;1265;139819;-69
2023/04/12 12:42:51;;;;;;;11.60;7.80;;;;;;;13.06;64.92;99061.17;216886;1263;140319;-68
2023/04/12 12:48:03;;;;;;;15.50;9.60;;;;;;;13.18;65.18;99056.95;218071;1265;139306;-68
2023/04/12 12:53:07;;;;;;;12.40;9.60;;;;;;;12.98;64.79;99056.34;216932;1265;138481;-71
2023/04/12 12:58:11;;;;;;;8.90;7.90;;;;;;;12.82;65.22;99051.84;218121;1260;140270;-69
2023/04/12 13:03:14;;;;;;;16.40;10.30;;;;;;;12.72;65.01;99040.54;219106;1263;140430;-69
2023/04/12 13:08:18;;;;;;;12.70;6.30;;;;;;;12.69;65.36;99040.80;219832;1262;140016;-71
2023/04/12 13:13:21;;;;;;;14.30;9.90;;;;;;;12.58;64.87;99038.15;219888;1260;139725;-70
2023/04/12 13:18:24;;;;;;;7.70;6.50;;;;;;;12.50;65.19;99032.86;217045;1260;139564;-71
2023/04/12 13:23:27;;;;;;;8.40;6.70;;;;;;;12.32;64.66;99030.18;217729;1263;141166;-70
2023/04/12 13:28:32;;;;;;;8.60;7.10;;;;;;;12.13;64.74;99033.86;216851;1263;139872;-69
2023/04/12 13:33:34;;;;;;;10.20;7.00;;;;;;;11.81;64.63;99028.42;217891;1264;139560;-68
2023/04/12 13:38:37;;;;;;;8.80;7.60;;;;;;;11.58;64.60;99024.86;216964;1261;138751;-72
2023/04/12 13:43:40;;;;;;;8.80;7.30;;;;;;;11.37;64.99;99014.01;217237;1265;138676;-67
2023/04/12 13:48:44;;;;;;;8.50;6.40;;;;;;;11.27;65.32;99005.05;217094;1264;138791;-67
2023/04/12 13:53:47;;;;;;;13.50;7.00;;;;;;;11.28;65.60;99010.98;216863;1265;138640;-68
2023/04/12 13:58:50;;;;;;;16.30;10.90;;;;;;;11.30;65.53;99004.30;217188;1260;140032;-71
2023/04/12 14:03:53;;;;;;;12.30;8.10;;;;;;;11.37;65.67;98997.24;217128;1262;140372;-70
2023/04/12 14:08:57;;;;;;;11.90;8.60;;;;;;;11.57;66.27;98994.91;217281;1262;139676;-70
2023/04/12 14:14:02;;;;;;;12.40;7.70;;;;;;;11.80;66.27;98995.70;216966;1260;141506;-70
2023/04/12 14:19:06;;;;;;;15.80;8.80;;;;;;;11.98;65.90;98995.13;217284;1261;139605;-70
2023/04/12 14:24:09;;;;;;;13.00;9.50;;;;;;;11.99;64.93;98994.44;217652;1262;244950;-70
2023/04/12 14:29:12;;;;;;;11.40;7.90;;;;;;;11.86;65.09;98993.11;217066;1260;140900;-71
2023/04/12 14:34:17;;;;;;;11.90;8.10;;;;;;;12.00;65.23;98990.74;217274;1263;139183;-70
2023/04/12 14:39:23;;;;;;;18.20;9.40;;;;;;;11.95;64.27;98988.90;217401;1262;140190;-71
2023/04/12 14:44:26;;;;;;;12.00;7.30;;;;;;;12.05;64.72;98985.21;217316;1260;139141;-70
2023/04/12 14:49:30;;;;;;;10.70;7.90;;;;;;;12.07;63.70;98984.80;217962;1263;139835;-70
2023/04/12 14:54:35;;;;;;;7.90;6.50;;;;;;;12.04;63.43;98980.19;217152;1261;138685;-70
2023/04/12 14:59:38;;;;;;;10.10;7.80;;;;;;;12.03;62.84;98979.48;217242;1262;139341;-68
2023/04/12 15:04:46;;;;;;;11.00;7.50;;;;;;;11.92;63.17;98974.70;219509;1261;138901;-71
2023/04/12 15:09:56;;;;;;;11.10;7.90;;;;;;;11.87;62.95;98973.40;217991;1261;139482;-72
2023/04/12 15:15:02;;;;;;;7.90;6.90;;;;;;;11.69;62.50;98969.49;217405;1263;139877;-68
2023/04/12 15:26:33;;;;;;;6.60;5.00;;;;;;;11.93;62.67;98954.94;217429;1263;138991;-67
2023/04/12 15:31:36;;;;;;;6.30;5.60;;;;;;;12.01;62.26;98956.51;216911;1263;139707;-66
2023/04/12 15:36:41;;;;;;;6.80;5.60;;;;;;;12.04;61.65;98959.02;218261;1263;142317;-69
2023/04/12 15:41:44;;;;;;;7.90;5.70;;;;;;;12.14;61.61;98955.38;217810;1260;138844;-67
2023/04/12 15:46:46;;;;;;;8.00;5.90;;;;;;;12.19;61.31;98942.20;217823;1257;139505;-67
2023/04/12 15:52:11;;;;;;;5.00;4.50;;;;;;;12.26;61.43;98942.51;217481;1260;139416;-68
2023/04/12 15:57:14;;;;;;;4.70;3.80;;;;;;;12.21;61.24;98943.69;217923;1260;138707;-66
2023/04/12 16:02:16;;;;;;;6.00;4.90;;;;;;;11.97;60.86;98944.91;218160;1257;139751;-67
2023/04/12 16:07:19;;;;;;;6.10;4.80;;;;;;;11.74;61.06;98945.66;218119;1257;139266;-68
2023/04/12 16:12:21;;;;;;;6.10;5.20;;;;;;;11.59;61.18;98938.27;217667;1257;139374;-69
2023/04/12 16:17:24;;;;;;;6.80;4.90;;;;;;;11.47;61.55;98945.11;217975;1258;138751;-71
2023/04/12 16:22:28;;;;;;;5.90;5.10;;;;;;;11.38;61.78;98941.44;217567;1257;139063;-69
2023/04/12 16:27:31;;;;;;;5.90;5.30;;;;;;;11.34;62.15;98935.33;218272;1258;138846;-72
2023/04/12 16:32:34;;;;;;;6.90;5.50;;;;;;;11.25;61.94;98930.91;217735;1258;140289;-75
2023/04/12 16:37:42;;;;;;;6.40;5.80;;;;;;;11.17;62.35;98934.59;217371;1257;139679;-66
2023/04/12 16:42:50;;;;;;;5.40;4.90;;;;;;;11.08;62.68;98932.46;218490;1257;139328;-69
2023/04/12 16:47:53;;;;;;;5.10;4.60;;;;;;;10.92;62.65;98929.90;218381;1257;139567;-67
2023/04/12 16:53:00;;;;;;;6.70;5.80;;;;;;;10.72;62.87;98924.96;220296;1257;139028;-68
2023/04/12 16:58:06;;;;;;;9.70;6.50;;;;;;;10.60;62.84;98924.39;220376;1256;140621;-68
2023/04/12 17:03:11;;;;;;;11.50;8.80;;;;;;;10.43;63.09;98922.80;220508;1257;139711;-68
2023/04/12 17:08:16;;;;;;;9.20;5.80;;;;;;;10.34;63.74;98924.12;219979;1257;141423;-70
2023/04/12 17:13:21;;;;;;;8.20;6.50;;;;;;;10.25;64.55;98919.92;220206;1257;139912;-72
2023/04/12 17:18:26;;;;;;;9.80;7.40;;;;;;;10.08;64.89;98913.71;219049;1257;141188;-71
2023/04/12 17:23:29;;;;;;;8.10;6.50;;;;;;;9.89;65.30;98913.20;217914;1258;140262;-69
2023/04/12 17:28:33;;;;;;;8.80;6.10;;;;;;;9.73;65.82;98917.88;218417;1257;139434;-69
2023/04/12 17:33:37;;;;;;;8.40;6.20;;;;;;;9.52;66.16;98922.20;217743;1257;138953;-68
2023/04/12 17:38:42;;;;;;;7.10;6.40;;;;;;;9.34;66.60;98926.44;217907;1257;139393;-68
2023/04/12 17:43:47;;;;;;;8.00;7.20;;;;;;;9.15;66.90;98930.85;218127;1258;139206;-66
2023/04/12 17:48:52;;;;;;;8.00;6.20;;;;;;;8.89;67.32;98933.09;218122;1260;139833;-66
2023/04/12 17:53:59;;;;;;;9.10;7.30;;;;;;;8.62;67.30;98932.92;218154;1256;139140;-67
2023/04/12 17:59:04;;;;;;;14.60;7.00;;;;;;;8.44;67.90;98941.23;217633;1260;139349;-67
2023/04/12 18:04:09;;;;;;;11.80;8.00;;;;;;;8.30;68.20;98942.30;218230;1256;139287;-67
2023/04/12 18:09:13;;;;;;;12.00;8.90;;;;;;;8.21;68.29;98942.73;217815;1257;139201;-68
2023/04/12 18:14:16;;;;;;;15.50;10.20;;;;;;;8.09;68.79;98940.96;217387;1256;139219;-67
2023/04/12 18:19:20;;;;;;;16.10;11.50;;;;;;;7.94;69.09;98943.30;218100;1257;139947;-70
2023/04/12 18:24:23;;;;;;;15.60;10.70;;;;;;;7.84;69.46;98940.45;218484;1257;140427;-69
2023/04/12 18:29:26;;;;;;;15.40;10.50;;;;;;;7.73;69.54;98943.42;218823;1256;139832;-68
2023/04/12 18:34:29;;;;;;;21.70;13.00;;;;;;;7.59;69.72;98939.58;218009;1257;139721;-69
2023/04/12 18:39:34;;;;;;;24.70;15.00;;;;;;;7.42;69.87;98934.30;217758;1257;139583;-71
2023/04/12 18:44:36;;;;;;;21.30;13.90;;;;;;;7.33;70.48;98927.27;219864;1256;140071;-70
2023/04/12 18:49:40;;;;;;;20.30;12.70;;;;;;;7.31;70.66;98925.77;219567;1256;139666;-72
2023/04/12 18:54:43;;;;;;;19.70;13.50;;;;;;;7.30;70.52;98928.02;220326;1256;140649;-70
2023/04/12 18:59:48;;;;;;;19.20;13.40;;;;;;;7.28;70.65;98925.58;218663;1258;140355;-68
2023/04/12 19:04:51;;;;;;;18.00;13.60;;;;;;;7.18;70.48;98923.19;220305;1256;139898;-70
2023/04/12 19:09:58;;;;;;;25.80;15.90;;;;;;;7.04;70.83;98921.45;218594;1256;140421;-70
2023/04/12 19:15:05;;;;;;;25.00;16.30;;;;;;;6.97;71.39;98921.25;218430;1257;140285;-71
2023/04/12 19:20:11;;;;;;;;;;;;;;;6.90;71.51;98921.94;218201;1256;209253;-72
2023/04/12 19:25:15;;;;;;;23.00;14.70;;;;;;;6.80;71.46;98920.15;219042;1256;125732;-66
2023/04/12 19:30:21;;;;;;;22.70;15.60;;;;;;;6.73;71.65;98914.65;217904;1260;139491;-75
2023/04/12 19:35:24;;;;;;;24.70;15.30;;;;;;;6.64;72.14;98912.13;218534;1256;139617;-65
2023/04/12 19:40:27;;;;;;;20.80;12.90;;;;;;;6.58;72.33;98912.17;217479;1257;139055;-66
2023/04/12 19:45:32;;;;;;;23.50;13.50;;;;;;;6.50;72.82;98917.18;217590;1257;140515;-66
2023/04/12 19:50:40;;;;;;;18.70;14.10;;;;;;;6.41;72.75;98918.92;217548;1257;141673;-65
2023/04/12 19:55:47;;;;;;;19.40;13.20;;;;;;;6.28;72.71;98916.07;217790;1257;140490;-66
2023/04/12 20:00:52;;;;;;;23.40;13.40;;;;;;;6.12;72.76;98911.42;217695;1257;139350;-69
2023/04/12 20:05:57;;;;;;;21.20;14.80;;;;;;;5.95;73.05;98903.63;217935;1257;139692;-70
2023/04/12 20:11:01;;;;;;;19.70;12.60;;;;;;;5.78;72.98;98901.73;217697;1257;140053;-65
2023/04/12 20:16:04;;;;;;;17.30;13.80;;;;;;;5.65;73.52;98895.63;217856;1260;139606;-67
2023/04/12 20:21:08;;;;;;;20.90;12.60;;;;;;;5.46;73.18;98890.54;217742;1260;139454;-66
2023/04/12 20:26:12;;;;;;;31.60;15.20;;;;;;;5.29;73.75;98890.79;218122;1256;139301;-67
2023/04/12 20:31:14;;;;;;;25.60;17.40;;;;;;;5.23;74.05;98890.14;218813;1256;139544;-65
2023/04/12 20:36:21;;;;;;;29.10;17.30;;;;;;;5.21;74.31;98883.92;218813;1256;140426;-67
2023/04/12 20:41:24;;;;;;;30.20;18.30;;;;;;;5.19;74.67;98880.16;218063;1256;139628;-65
2023/04/12 20:46:30;;;;;;;33.10;20.60;;;;;;;5.12;74.35;98882.29;219725;1256;139890;-69
2023/04/12 20:51:38;;;;;;;23.00;16.90;;;;;;;5.00;74.47;98885.98;219715;1256;141122;-67
2023/04/12 20:56:43;;;;;;;26.20;16.70;;;;;;;4.91;74.79;98888.20;218820;1256;140325;-67
2023/04/12 21:01:48;;;;;;;26.30;16.60;;;;;;;4.86;74.90;98886.17;218766;1259;139811;-69
2023/04/12 21:06:56;;;;;;;22.90;14.90;;;;;;;4.86;75.17;98891.46;217575;1256;140546;-67
2023/04/12 21:12:03;;;;;;;26.90;15.50;;;;;;;4.83;75.51;98894.58;218908;1257;140142;-67
2023/04/12 21:17:07;;;;;;;26.70;16.50;;;;;;;4.78;75.66;98901.96;218957;1257;140078;-67
2023/04/12 21:22:11;;;;;;;17.00;13.40;;;;;;;4.68;75.27;98900.23;218382;1256;220883;-65
2023/04/12 21:27:15;;;;;;;20.20;15.20;;;;;;;4.49;75.44;98898.58;218642;1256;139672;-65
2023/04/12 21:32:19;;;;;;;34.20;19.70;;;;;;;4.37;76.05;98896.79;217867;1256;141915;-68
2023/04/12 21:37:24;;;;;;;40.00;22.40;;;;;;;4.35;76.50;98894.17;218942;1256;140337;-67
2023/04/12 21:42:28;;;;;;;34.20;21.00;;;;;;;4.32;76.54;98887.53;217542;1260;140244;-66
2023/04/12 21:47:32;;;;;;;28.80;17.40;;;;;;;4.30;77.05;98879.14;218706;1257;141181;-66
2023/04/12 21:52:36;;;;;;;33.40;18.80;;;;;;;4.31;77.13;98875.61;217616;1256;140113;-67
2023/04/12 21:57:40;;;;;;;31.80;20.00;;;;;;;4.28;76.96;98876.85;217964;1259;139460;-66
2023/04/12 22:02:43;;;;;;;38.40;22.20;;;;;;;4.27;77.12;98868.44;217561;1257;139499;-66
2023/04/12 22:07:46;;;;;;;35.50;22.10;;;;;;;4.28;77.27;98865.27;218852;1256;139615;-67
2023/04/12 22:12:52;;;;;;;32.20;19.60;;;;;;;4.28;77.33;98869.48;218758;1257;139823;-67
2023/04/12 22:17:56;;;;;;;34.00;19.50;;;;;;;4.29;77.49;98867.91;217673;1257;140082;-67
2023/04/12 22:23:00;;;;;;;31.60;19.00;;;;;;;4.32;77.75;98864.72;219020;1256;140043;-67
2023/04/12 22:28:04;;;;;;;31.10;17.30;;;;;;;4.33;77.84;98852.94;217564;1259;140131;-67
2023/04/12 22:33:12;;;;;;;30.80;18.80;;;;;;;4.29;77.70;98851.72;217689;1257;139895;-66
2023/04/12 22:38:18;;;;;;;35.50;19.60;;;;;;;4.22;77.75;98843.88;218389;1257;139656;-66
2023/04/12 22:43:23;;;;;;;31.40;17.80;;;;;;;4.19;77.93;98830.79;220113;1256;140080;-65
2023/04/12 22:48:26;;;;;;;38.10;19.10;;;;;;;4.14;77.75;98824.67;220480;1256;140111;-65
2023/04/12 22:53:32;;;;;;;44.30;21.10;;;;;;;4.08;77.70;98822.84;220324;1256;140259;-64
2023/04/12 22:58:36;;;;;;;27.40;17.10;;;;;;;3.99;77.55;98811.52;220209;1256;140922;-66
2023/04/12 23:03:41;;;;;;;38.70;22.00;;;;;;;3.85;77.28;98802.09;217774;1259;139825;-65
2023/04/12 23:08:45;;;;;;;26.60;18.20;;;;;;;3.72;77.38;98795.71;218776;1259;140315;-66
2023/04/12 23:13:48;;;;;;;33.00;15.50;;;;;;;3.63;77.62;98792.64;218201;1256;140163;-66
2023/04/12 23:18:52;;;;;;;31.20;19.60;;;;;;;3.60;78.16;98787.63;218961;1257;140193;-65
2023/04/12 23:23:55;;;;;;;27.60;16.00;;;;;;;3.63;78.46;98782.41;219160;1259;140567;-65
2023/04/12 23:29:00;;;;;;;26.90;17.50;;;;;;;3.70;78.69;98785.14;217701;1257;140132;-66